sensor_id;sensor_type;location;lat;lon;timestamp;pressure;altitude;pressure_sealevel;temperature;humidity
50040;BME280;44598;51.606;5.912;2023-12-14T00:12:30;100500;;;8.9;94.3
50040;BME280;44598;51.606;5.912;2023-12-14T00:25:50;100500;;;8.7;94.2
50040;BME280;44598;51.606;5.912;2023-12-14T00:39:09;100600;;;8.6;94.3
50040;BME280;44598;51.606;5.912;2023-12-14T01:05:49;100600;;;8.3;94.3
50040;BME280;44598;51.606;5.912;2023-12-14T01:45:49;100700;;;8.1;94.3
50040;BME280;44598;51.606;5.912;2023-12-14T01:59:08;100700;;;8.0;94.3
50040;BME280;44598;51.606;5.912;2023-12-14T02:12:28;100800;;;7.9;94.5
50040;BME280;44598;51.606;5.912;2023-12-14T02:25:48;100800;;;7.9;94.5
50040;BME280;44598;51.606;5.912;2023-12-14T02:39:08;100800;;;7.8;94.5
50040;BME280;44598;51.606;5.912;2023-12-14T02:52:28;100800;;;7.7;94.5
50040;BME280;44598;51.606;5.912;2023-12-14T03:05:48;100800;;;7.6;94.7
50040;BME280;44598;51.606;5.912;2023-12-14T03:32:27;100900;;;7.6;94.1
50040;BME280;44598;51.606;5.912;2023-12-14T03:45:47;100900;;;7.5;94.4
50040;BME280;44598;51.606;5.912;2023-12-14T03:59:07;100900;;;7.4;94.4
50040;BME280;44598;51.606;5.912;2023-12-14T04:12:27;100900;;;7.3;94.0
50040;BME280;44598;51.606;5.912;2023-12-14T04:25:47;100900;;;7.3;93.8
50040;BME280;44598;51.606;5.912;2023-12-14T04:39:07;101000;;;7.3;93.6
50040;BME280;44598;51.606;5.912;2023-12-14T05:19:06;101000;;;7.3;92.7
50040;BME280;44598;51.606;5.912;2023-12-14T05:32:26;101000;;;7.3;92.8
50040;BME280;44598;51.606;5.912;2023-12-14T05:45:46;101100;;;7.3;92.7
50040;BME280;44598;51.606;5.912;2023-12-14T05:59:05;101100;;;7.3;92.3
50040;BME280;44598;51.606;5.912;2023-12-14T06:12:25;101100;;;7.2;92.1
50040;BME280;44598;51.606;5.912;2023-12-14T06:39:05;101200;;;7.1;92.0
50040;BME280;44598;51.606;5.912;2023-12-14T07:05:44;101200;;;7.1;92.0
50040;BME280;44598;51.606;5.912;2023-12-14T07:19:04;101200;;;7.1;91.8
50040;BME280;44598;51.606;5.912;2023-12-14T07:32:24;101200;;;7.1;92.0
50040;BME280;44598;51.606;5.912;2023-12-14T07:45:44;101300;;;7.1;92.0
50040;BME280;44598;51.606;5.912;2023-12-14T08:12:24;101300;;;7.1;91.1
50040;BME280;44598;51.606;5.912;2023-12-14T08:39:03;101400;;;7.1;90.5
50040;BME280;44598;51.606;5.912;2023-12-14T08:52:23;101400;;;7.1;90.7
50040;BME280;44598;51.606;5.912;2023-12-14T09:05:43;101400;;;7.1;91.1
50040;BME280;44598;51.606;5.912;2023-12-14T09:19:03;101400;;;7.1;90.8
50040;BME280;44598;51.606;5.912;2023-12-14T09:32:22;101500;;;7.1;90.6
50040;BME280;44598;51.606;5.912;2023-12-14T09:59:02;101500;;;6.9;91.3
50040;BME280;44598;51.606;5.912;2023-12-14T10:12:22;101500;;;6.9;90.9
50040;BME280;44598;51.606;5.912;2023-12-14T10:25:42;101500;;;6.8;91.0
50040;BME280;44598;51.606;5.912;2023-12-14T10:39:02;101600;;;6.8;89.7
50040;BME280;44598;51.606;5.912;2023-12-14T10:52:22;101600;;;6.8;89.3
50040;BME280;44598;51.606;5.912;2023-12-14T11:05:41;101600;;;6.8;87.8
50040;BME280;44598;51.606;5.912;2023-12-14T11:19:01;101600;;;6.7;88.1
50040;BME280;44598;51.606;5.912;2023-12-14T11:32:21;101600;;;6.8;87.3
50040;BME280;44598;51.606;5.912;2023-12-14T11:45:41;101600;;;6.8;87.1
50040;BME280;44598;51.606;5.912;2023-12-14T11:59:01;101600;;;6.8;87.0
50040;BME280;44598;51.606;5.912;2023-12-14T12:12:21;101600;;;6.8;87.4
50040;BME280;44598;51.606;5.912;2023-12-14T12:25:40;101600;;;6.9;87.3
50040;BME280;44598;51.606;5.912;2023-12-14T12:39:00;101700;;;6.9;88.6
50040;BME280;44598;51.606;5.912;2023-12-14T13:05:40;101700;;;7.0;87.6
50040;BME280;44598;51.606;5.912;2023-12-14T13:19:00;101700;;;7.0;87.1
50040;BME280;44598;51.606;5.912;2023-12-14T13:32:19;101700;;;7.0;88.3
50040;BME280;44598;51.606;5.912;2023-12-14T13:45:39;101700;;;7.1;88.2
50040;BME280;44598;51.606;5.912;2023-12-14T13:58:59;101700;;;7.1;87.9
50040;BME280;44598;51.606;5.912;2023-12-14T14:12:19;101800;;;7.2;87.3
50040;BME280;44598;51.606;5.912;2023-12-14T14:25:39;101800;;;7.2;87.2
50040;BME280;44598;51.606;5.912;2023-12-14T14:38:59;101800;;;7.2;86.8
50040;BME280;44598;51.606;5.912;2023-12-14T14:52:18;101800;;;7.2;87.8
50040;BME280;44598;51.606;5.912;2023-12-14T15:05:38;101800;;;7.2;88.6
50040;BME280;44598;51.606;5.912;2023-12-14T15:18:58;101900;;;7.3;88.4
50040;BME280;44598;51.606;5.912;2023-12-14T15:58:58;101900;;;7.2;90.5
50040;BME280;44598;51.606;5.912;2023-12-14T16:12:18;101900;;;7.1;90.9
50040;BME280;44598;51.606;5.912;2023-12-14T16:25:37;102000;;;7.1;90.6
50040;BME280;44598;51.606;5.912;2023-12-14T16:38:57;102000;;;7.1;91.1
50040;BME280;44598;51.606;5.912;2023-12-14T16:52:17;102000;;;7.0;91.5
50040;BME280;44598;51.606;5.912;2023-12-14T17:05:37;102000;;;7.0;91.9
50040;BME280;44598;51.606;5.912;2023-12-14T17:45:36;102100;;;7.0;92.3
50040;BME280;44598;51.606;5.912;2023-12-14T17:58:56;102100;;;7.3;92.4
50040;BME280;44598;51.606;5.912;2023-12-14T18:12:16;102100;;;7.2;92.5
50040;BME280;44598;51.606;5.912;2023-12-14T18:25:36;102100;;;7.1;92.5
50040;BME280;44598;51.606;5.912;2023-12-14T18:38:56;102100;;;7.0;92.6
50040;BME280;44598;51.606;5.912;2023-12-14T18:52:16;102100;;;6.9;92.6
50040;BME280;44598;51.606;5.912;2023-12-14T19:05:35;102100;;;6.9;92.9
50040;BME280;44598;51.606;5.912;2023-12-14T19:18:55;102100;;;6.9;93.0
50040;BME280;44598;51.606;5.912;2023-12-14T19:32:15;102200;;;6.8;93.1
50040;BME280;44598;51.606;5.912;2023-12-14T19:45:35;102200;;;6.8;93.2
50040;BME280;44598;51.606;5.912;2023-12-14T19:58:55;102200;;;6.8;93.4
50040;BME280;44598;51.606;5.912;2023-12-14T20:12:14;102200;;;6.8;93.8
50040;BME280;44598;51.606;5.912;2023-12-14T20:25:34;102200;;;6.7;94.1
50040;BME280;44598;51.606;5.912;2023-12-14T20:38:54;102300;;;6.7;94.0
50040;BME280;44598;51.606;5.912;2023-12-14T20:52:14;102300;;;6.7;94.1
50040;BME280;44598;51.606;5.912;2023-12-14T21:05:34;102300;;;6.6;94.6
50040;BME280;44598;51.606;5.912;2023-12-14T21:32:13;102300;;;6.6;94.7
50040;BME280;44598;51.606;5.912;2023-12-14T21:45:33;102300;;;6.6;94.6
50040;BME280;44598;51.606;5.912;2023-12-14T21:58:53;102300;;;6.6;95.2
50040;BME280;44598;51.606;5.912;2023-12-14T22:12:13;102300;;;6.6;95.5
50040;BME280;44598;51.606;5.912;2023-12-14T22:25:33;102400;;;6.7;95.6
50040;BME280;44598;51.606;5.912;2023-12-14T22:52:12;102400;;;6.9;95.2
50040;BME280;44598;51.606;5.912;2023-12-14T23:05:32;102400;;;7.0;95.0
50040;BME280;44598;51.606;5.912;2023-12-14T23:18:52;102400;;;7.1;94.7
50040;BME280;44598;51.606;5.912;2023-12-14T23:32:12;102400;;;7.2;94.4
50040;BME280;44598;51.606;5.912;2023-12-14T23:45:32;102400;;;7.3;94.4
50040;BME280;44598;51.606;5.912;2023-12-14T23:58:51;102400;;;7.3;94.3
